sensor_id;sensor_type;location;lat;lon;timestamp;pressure;altitude;pressure_sealevel;temperature;humidity
54146;BME280;40052;49.422;7.738;2022-11-18T00:01:07;73591.56;;;-145.25;99.45
54146;BME280;40052;49.422;7.738;2022-11-18T00:03:33;73597.56;;;-145.25;99.46
54146;BME280;40052;49.422;7.738;2022-11-18T00:05:59;73605.56;;;-145.25;99.56
54146;BME280;40052;49.422;7.738;2022-11-18T00:08:27;73607.59;;;-145.25;100.00
54146;BME280;40052;49.422;7.738;2022-11-18T00:10:54;73611.59;;;-145.25;100.00
54146;BME280;40052;49.422;7.738;2022-11-18T00:13:20;73625.63;;;-145.25;100.00
54146;BME280;40052;49.422;7.738;2022-11-18T00:16:06;73639.63;;;-145.25;100.00
54146;BME280;40052;49.422;7.738;2022-11-18T00:18:34;73645.66;;;-145.25;100.00
54146;BME280;40052;49.422;7.738;2022-11-18T00:21:06;73655.66;;;-145.25;100.00
54146;BME280;40052;49.422;7.738;2022-11-18T00:23:32;73655.66;;;-145.25;100.00
54146;BME280;40052;49.422;7.738;2022-11-18T00:26:06;73649.66;;;-145.25;100.00
54146;BME280;40052;49.422;7.738;2022-11-18T00:28:32;73647.66;;;-145.25;100.00
54146;BME280;40052;49.422;7.738;2022-11-18T00:31:24;73643.66;;;-145.25;100.00
54146;BME280;40052;49.422;7.738;2022-11-18T00:33:54;73651.66;;;-145.25;100.00
54146;BME280;40052;49.422;7.738;2022-11-18T00:36:19;73645.66;;;-145.25;100.00
54146;BME280;40052;49.422;7.738;2022-11-18T00:38:44;73645.66;;;-145.25;100.00
54146;BME280;40052;49.422;7.738;2022-11-18T00:41:14;73643.66;;;-145.25;100.00
54146;BME280;40052;49.422;7.738;2022-11-18T00:43:40;73639.63;;;-145.25;100.00
54146;BME280;40052;49.422;7.738;2022-11-18T00:46:10;73645.66;;;-145.25;100.00
54146;BME280;40052;49.422;7.738;2022-11-18T00:48:36;73643.66;;;-145.25;100.00
54146;BME280;40052;49.422;7.738;2022-11-18T00:51:14;73637.63;;;-145.25;100.00
54146;BME280;40052;49.422;7.738;2022-11-18T00:53:40;73653.66;;;-145.25;100.00
54146;BME280;40052;49.422;7.738;2022-11-18T00:56:08;73649.66;;;-145.25;100.00
54146;BME280;40052;49.422;7.738;2022-11-18T00:58:36;73651.66;;;-145.25;100.00
54146;BME280;40052;49.422;7.738;2022-11-18T01:01:03;73653.66;;;-145.25;100.00
54146;BME280;40052;49.422;7.738;2022-11-18T01:03:31;73653.66;;;-145.25;100.00
54146;BME280;40052;49.422;7.738;2022-11-18T01:05:56;73655.66;;;-145.25;100.00
54146;BME280;40052;49.422;7.738;2022-11-18T01:08:25;73649.66;;;-145.25;100.00
54146;BME280;40052;49.422;7.738;2022-11-18T01:10:53;73649.66;;;-145.25;100.00
54146;BME280;40052;49.422;7.738;2022-11-18T01:13:20;73655.66;;;-145.25;100.00
54146;BME280;40052;49.422;7.738;2022-11-18T01:15:52;73657.66;;;-145.25;100.00
54146;BME280;40052;49.422;7.738;2022-11-18T01:18:20;73663.69;;;-145.25;100.00
54146;BME280;40052;49.422;7.738;2022-11-18T01:20:46;73667.69;;;-145.25;100.00
54146;BME280;40052;49.422;7.738;2022-11-18T01:23:12;73659.66;;;-145.25;100.00
54146;BME280;40052;49.422;7.738;2022-11-18T01:25:40;73661.69;;;-145.25;100.00
54146;BME280;40052;49.422;7.738;2022-11-18T01:28:06;73671.69;;;-145.25;100.00
54146;BME280;40052;49.422;7.738;2022-11-18T01:30:33;73663.69;;;-145.25;100.00
54146;BME280;40052;49.422;7.738;2022-11-18T01:33:04;73659.66;;;-145.25;100.00
54146;BME280;40052;49.422;7.738;2022-11-18T01:35:41;73647.66;;;-145.25;100.00
54146;BME280;40052;49.422;7.738;2022-11-18T01:38:09;73651.66;;;-145.25;100.00
54146;BME280;40052;49.422;7.738;2022-11-18T01:40:38;73653.66;;;-145.25;100.00
54146;BME280;40052;49.422;7.738;2022-11-18T01:43:15;73661.69;;;-145.25;100.00
54146;BME280;40052;49.422;7.738;2022-11-18T01:45:43;73659.66;;;-145.25;100.00
54146;BME280;40052;49.422;7.738;2022-11-18T01:51:05;73663.69;;;-145.25;100.00
54146;BME280;40052;49.422;7.738;2022-11-18T01:53:38;73667.69;;;-145.25;100.00
54146;BME280;40052;49.422;7.738;2022-11-18T01:56:14;73671.69;;;-145.25;100.00
54146;BME280;40052;49.422;7.738;2022-11-18T01:58:48;73671.69;;;-145.25;100.00
54146;BME280;40052;49.422;7.738;2022-11-18T02:01:15;73653.66;;;-145.25;100.00
54146;BME280;40052;49.422;7.738;2022-11-18T02:03:43;73659.66;;;-145.25;100.00
54146;BME280;40052;49.422;7.738;2022-11-18T02:06:10;73663.69;;;-145.25;100.00
54146;BME280;40052;49.422;7.738;2022-11-18T02:08:36;73659.66;;;-145.25;100.00
54146;BME280;40052;49.422;7.738;2022-11-18T02:11:03;73655.66;;;-145.25;100.00
54146;BME280;40052;49.422;7.738;2022-11-18T02:13:31;73659.66;;;-145.25;100.00
54146;BME280;40052;49.422;7.738;2022-11-18T02:16:14;73661.69;;;-145.25;100.00
54146;BME280;40052;49.422;7.738;2022-11-18T02:18:53;73661.69;;;-145.25;100.00
54146;BME280;40052;49.422;7.738;2022-11-18T02:26:51;73667.69;;;-145.25;100.00
54146;BME280;40052;49.422;7.738;2022-11-18T02:29:30;73671.69;;;-145.25;100.00
54146;BME280;40052;49.422;7.738;2022-11-18T02:32:00;73669.69;;;-145.25;100.00
54146;BME280;40052;49.422;7.738;2022-11-18T02:39:56;73671.69;;;-145.25;100.00
54146;BME280;40052;49.422;7.738;2022-11-18T02:42:23;73669.69;;;-145.25;100.00
54146;BME280;40052;49.422;7.738;2022-11-18T02:44:57;73675.69;;;-145.25;100.00
54146;BME280;40052;49.422;7.738;2022-11-18T02:47:26;73677.69;;;-145.25;100.00
54146;BME280;40052;49.422;7.738;2022-11-18T02:49:57;73665.69;;;-145.25;100.00
54146;BME280;40052;49.422;7.738;2022-11-18T02:52:26;73679.72;;;-145.25;100.00
54146;BME280;40052;49.422;7.738;2022-11-18T02:54:52;73673.69;;;-145.25;100.00
54146;BME280;40052;49.422;7.738;2022-11-18T02:57:22;73673.69;;;-145.25;100.00
54146;BME280;40052;49.422;7.738;2022-11-18T02:59:49;73669.69;;;-145.25;100.00
54146;BME280;40052;49.422;7.738;2022-11-18T03:02:15;73677.69;;;-145.25;100.00
54146;BME280;40052;49.422;7.738;2022-11-18T03:04:43;73673.69;;;-145.25;100.00
54146;BME280;40052;49.422;7.738;2022-11-18T03:07:26;73679.72;;;-145.25;100.00
54146;BME280;40052;49.422;7.738;2022-11-18T03:09:54;73683.72;;;-145.25;100.00
54146;BME280;40052;49.422;7.738;2022-11-18T03:15:21;73677.69;;;-145.25;100.00
54146;BME280;40052;49.422;7.738;2022-11-18T03:20:51;73699.75;;;-145.25;100.00
54146;BME280;40052;49.422;7.738;2022-11-18T03:23:41;73719.78;;;-145.25;98.74
54146;BME280;40052;49.422;7.738;2022-11-18T03:26:11;73767.84;;;-145.25;98.28
54146;BME280;40052;49.422;7.738;2022-11-18T03:28:46;73773.88;;;-145.25;98.82
54146;BME280;40052;49.422;7.738;2022-11-18T03:31:23;73783.88;;;-145.25;99.34
54146;BME280;40052;49.422;7.738;2022-11-18T03:33:55;73795.91;;;-145.25;99.92
54146;BME280;40052;49.422;7.738;2022-11-18T03:36:27;73809.94;;;-145.25;99.91
54146;BME280;40052;49.422;7.738;2022-11-18T03:38:59;73815.94;;;-145.25;100.00
54146;BME280;40052;49.422;7.738;2022-11-18T03:41:28;73811.94;;;-145.25;100.00
54146;BME280;40052;49.422;7.738;2022-11-18T03:44:00;73829.97;;;-145.25;100.00
54146;BME280;40052;49.422;7.738;2022-11-18T03:46:35;73827.97;;;-145.25;99.44
54146;BME280;40052;49.422;7.738;2022-11-18T03:49:04;73823.97;;;-145.25;99.86
54146;BME280;40052;49.422;7.738;2022-11-18T03:51:41;73835.97;;;-145.25;99.19
54146;BME280;40052;49.422;7.738;2022-11-18T03:54:13;73846.00;;;-145.25;99.16
54146;BME280;40052;49.422;7.738;2022-11-18T03:56:50;73854.00;;;-145.25;99.85
54146;BME280;40052;49.422;7.738;2022-11-18T03:59:27;73858.03;;;-145.25;99.99
54146;BME280;40052;49.422;7.738;2022-11-18T04:01:58;73862.03;;;-145.25;98.85
54146;BME280;40052;49.422;7.738;2022-11-18T04:04:28;73870.03;;;-145.25;99.20
54146;BME280;40052;49.422;7.738;2022-11-18T04:09:34;73882.06;;;-145.25;99.47
54146;BME280;40052;49.422;7.738;2022-11-18T04:12:01;73868.03;;;-145.25;99.86
54146;BME280;40052;49.422;7.738;2022-11-18T04:14:33;73882.06;;;-145.25;98.80
54146;BME280;40052;49.422;7.738;2022-11-18T04:17:05;73892.06;;;-145.25;98.22
54146;BME280;40052;49.422;7.738;2022-11-18T04:19:31;73916.13;;;-145.25;99.06
54146;BME280;40052;49.422;7.738;2022-11-18T04:21:59;73904.09;;;-145.25;98.10
54146;BME280;40052;49.422;7.738;2022-11-18T04:24:27;73908.09;;;-145.25;98.10
54146;BME280;40052;49.422;7.738;2022-11-18T04:26:54;73918.13;;;-145.25;98.34
54146;BME280;40052;49.422;7.738;2022-11-18T04:29:22;73920.13;;;-145.25;97.04
54146;BME280;40052;49.422;7.738;2022-11-18T04:31:48;73930.16;;;-145.25;96.51
54146;BME280;40052;49.422;7.738;2022-11-18T04:34:13;73934.16;;;-145.25;96.25
54146;BME280;40052;49.422;7.738;2022-11-18T04:36:39;73946.19;;;-145.25;95.90
54146;BME280;40052;49.422;7.738;2022-11-18T04:39:04;73952.19;;;-145.25;96.38
54146;BME280;40052;49.422;7.738;2022-11-18T04:41:30;73954.19;;;-145.25;96.82
54146;BME280;40052;49.422;7.738;2022-11-18T04:44:13;73956.19;;;-145.25;95.60
54146;BME280;40052;49.422;7.738;2022-11-18T04:46:41;73958.19;;;-145.25;95.74
54146;BME280;40052;49.422;7.738;2022-11-18T04:49:13;73962.22;;;-145.25;95.41
54146;BME280;40052;49.422;7.738;2022-11-18T04:51:39;73984.25;;;-145.25;96.26
54146;BME280;40052;49.422;7.738;2022-11-18T04:54:08;73984.25;;;-145.25;96.25
54146;BME280;40052;49.422;7.738;2022-11-18T04:56:34;73984.25;;;-145.25;96.07
54146;BME280;40052;49.422;7.738;2022-11-18T04:59:02;73984.25;;;-145.25;95.97
54146;BME280;40052;49.422;7.738;2022-11-18T05:01:28;73986.25;;;-145.25;96.37
54146;BME280;40052;49.422;7.738;2022-11-18T05:03:54;73992.25;;;-145.25;96.71
54146;BME280;40052;49.422;7.738;2022-11-18T05:06:20;74008.28;;;-145.25;96.87
54146;BME280;40052;49.422;7.738;2022-11-18T05:08:46;74000.28;;;-145.25;96.88
54146;BME280;40052;49.422;7.738;2022-11-18T05:11:11;74000.28;;;-145.25;96.96
54146;BME280;40052;49.422;7.738;2022-11-18T05:13:59;74014.31;;;-145.25;97.10
54146;BME280;40052;49.422;7.738;2022-11-18T05:16:29;74024.31;;;-145.25;97.58
54146;BME280;40052;49.422;7.738;2022-11-18T05:18:55;74042.34;;;-145.25;98.35
54146;BME280;40052;49.422;7.738;2022-11-18T05:21:27;74040.34;;;-145.25;98.50
54146;BME280;40052;49.422;7.738;2022-11-18T05:23:52;74048.38;;;-145.25;98.57
54146;BME280;40052;49.422;7.738;2022-11-18T05:26:18;74054.38;;;-145.25;98.89
54146;BME280;40052;49.422;7.738;2022-11-18T05:28:43;74064.38;;;-145.25;99.22
54146;BME280;40052;49.422;7.738;2022-11-18T05:31:12;74068.41;;;-145.25;98.80
54146;BME280;40052;49.422;7.738;2022-11-18T05:33:40;74066.41;;;-145.25;99.07
54146;BME280;40052;49.422;7.738;2022-11-18T05:36:08;74056.38;;;-145.25;99.23
54146;BME280;40052;49.422;7.738;2022-11-18T05:38:37;74074.41;;;-145.25;99.24
54146;BME280;40052;49.422;7.738;2022-11-18T05:41:03;74074.41;;;-145.25;98.99
54146;BME280;40052;49.422;7.738;2022-11-18T05:43:31;74072.41;;;-145.25;98.91
54146;BME280;40052;49.422;7.738;2022-11-18T05:45:59;74076.41;;;-145.25;98.59
54146;BME280;40052;49.422;7.738;2022-11-18T05:48:28;74080.41;;;-145.25;98.84
54146;BME280;40052;49.422;7.738;2022-11-18T05:50:56;74082.44;;;-145.25;98.78
54146;BME280;40052;49.422;7.738;2022-11-18T05:53:22;74080.41;;;-145.25;98.86
54146;BME280;40052;49.422;7.738;2022-11-18T05:55:56;74080.41;;;-145.25;98.65
54146;BME280;40052;49.422;7.738;2022-11-18T05:58:25;74082.44;;;-145.25;98.54
54146;BME280;40052;49.422;7.738;2022-11-18T06:00:53;74084.44;;;-145.25;98.41
54146;BME280;40052;49.422;7.738;2022-11-18T06:03:25;74084.44;;;-145.25;98.12
54146;BME280;40052;49.422;7.738;2022-11-18T06:05:55;74092.44;;;-145.25;98.74
54146;BME280;40052;49.422;7.738;2022-11-18T06:08:28;74086.44;;;-145.25;99.03
54146;BME280;40052;49.422;7.738;2022-11-18T06:10:55;74090.44;;;-145.25;98.67
54146;BME280;40052;49.422;7.738;2022-11-18T06:13:31;74090.44;;;-145.25;99.01
54146;BME280;40052;49.422;7.738;2022-11-18T06:15:58;74084.44;;;-145.25;98.89
54146;BME280;40052;49.422;7.738;2022-11-18T06:18:29;74098.44;;;-145.25;98.98
54146;BME280;40052;49.422;7.738;2022-11-18T06:20:58;74090.44;;;-145.25;98.97
54146;BME280;40052;49.422;7.738;2022-11-18T06:23:29;74098.44;;;-145.25;99.07
54146;BME280;40052;49.422;7.738;2022-11-18T06:25:55;74098.44;;;-145.25;98.79
54146;BME280;40052;49.422;7.738;2022-11-18T06:28:21;74104.47;;;-145.25;98.94
54146;BME280;40052;49.422;7.738;2022-11-18T06:30:47;74104.47;;;-145.25;98.62
54146;BME280;40052;49.422;7.738;2022-11-18T06:33:12;74114.47;;;-145.25;98.56
54146;BME280;40052;49.422;7.738;2022-11-18T06:35:38;74112.47;;;-145.25;98.59
54146;BME280;40052;49.422;7.738;2022-11-18T06:38:03;74110.47;;;-145.25;98.87
54146;BME280;40052;49.422;7.738;2022-11-18T06:40:29;74116.50;;;-145.25;98.60
54146;BME280;40052;49.422;7.738;2022-11-18T06:42:55;74114.47;;;-145.25;98.34
54146;BME280;40052;49.422;7.738;2022-11-18T06:45:39;74124.50;;;-145.25;99.09
54146;BME280;40052;49.422;7.738;2022-11-18T06:48:27;74126.50;;;-145.25;99.53
54146;BME280;40052;49.422;7.738;2022-11-18T06:50:52;74122.50;;;-145.25;99.59
54146;BME280;40052;49.422;7.738;2022-11-18T06:53:17;74128.50;;;-145.25;99.43
54146;BME280;40052;49.422;7.738;2022-11-18T06:55:43;74122.50;;;-145.25;99.93
54146;BME280;40052;49.422;7.738;2022-11-18T06:58:11;74122.50;;;-145.25;100.00
54146;BME280;40052;49.422;7.738;2022-11-18T07:00:36;74124.50;;;-145.25;100.00
54146;BME280;40052;49.422;7.738;2022-11-18T07:03:01;74126.50;;;-145.25;100.00
54146;BME280;40052;49.422;7.738;2022-11-18T07:05:27;74128.50;;;-145.25;100.00
54146;BME280;40052;49.422;7.738;2022-11-18T07:07:52;74124.50;;;-145.25;100.00
54146;BME280;40052;49.422;7.738;2022-11-18T07:10:17;74126.50;;;-145.25;100.00
54146;BME280;40052;49.422;7.738;2022-11-18T07:12:43;74124.50;;;-145.25;100.00
54146;BME280;40052;49.422;7.738;2022-11-18T07:15:10;74126.50;;;-145.25;100.00
54146;BME280;40052;49.422;7.738;2022-11-18T07:17:36;74122.50;;;-145.25;100.00
54146;BME280;40052;49.422;7.738;2022-11-18T07:20:01;74128.50;;;-145.25;100.00
54146;BME280;40052;49.422;7.738;2022-11-18T07:22:29;74134.53;;;-145.25;100.00
54146;BME280;40052;49.422;7.738;2022-11-18T07:24:55;74140.53;;;-145.25;100.00
54146;BME280;40052;49.422;7.738;2022-11-18T07:27:25;74152.56;;;-145.25;100.00
54146;BME280;40052;49.422;7.738;2022-11-18T07:29:52;74164.56;;;-145.25;100.00
54146;BME280;40052;49.422;7.738;2022-11-18T07:32:18;74164.56;;;-145.25;100.00
54146;BME280;40052;49.422;7.738;2022-11-18T07:34:43;74158.56;;;-145.25;100.00
54146;BME280;40052;49.422;7.738;2022-11-18T07:37:09;74154.56;;;-145.25;100.00
54146;BME280;40052;49.422;7.738;2022-11-18T07:39:37;74162.56;;;-145.25;100.00
54146;BME280;40052;49.422;7.738;2022-11-18T07:42:05;74154.56;;;-145.25;100.00
54146;BME280;40052;49.422;7.738;2022-11-18T07:44:30;74150.53;;;-145.25;100.00
54146;BME280;40052;49.422;7.738;2022-11-18T07:46:56;74146.53;;;-145.25;100.00
54146;BME280;40052;49.422;7.738;2022-11-18T07:49:21;74138.53;;;-145.25;100.00
54146;BME280;40052;49.422;7.738;2022-11-18T07:51:46;74138.53;;;-145.25;100.00
54146;BME280;40052;49.422;7.738;2022-11-18T07:54:13;74132.50;;;-145.25;100.00
54146;BME280;40052;49.422;7.738;2022-11-18T07:56:43;74122.50;;;-145.25;100.00
54146;BME280;40052;49.422;7.738;2022-11-18T07:59:08;74132.50;;;-145.25;100.00
54146;BME280;40052;49.422;7.738;2022-11-18T08:01:36;74138.53;;;-145.25;100.00
54146;BME280;40052;49.422;7.738;2022-11-18T08:04:06;74132.50;;;-145.25;100.00
54146;BME280;40052;49.422;7.738;2022-11-18T08:06:35;74130.50;;;-145.25;100.00
54146;BME280;40052;49.422;7.738;2022-11-18T08:09:01;74130.50;;;-145.25;100.00
54146;BME280;40052;49.422;7.738;2022-11-18T08:11:27;74130.50;;;-145.25;100.00
54146;BME280;40052;49.422;7.738;2022-11-18T08:13:55;74120.50;;;-145.25;100.00
54146;BME280;40052;49.422;7.738;2022-11-18T08:16:26;74104.47;;;-145.25;100.00
54146;BME280;40052;49.422;7.738;2022-11-18T08:18:52;74100.47;;;-145.25;100.00
54146;BME280;40052;49.422;7.738;2022-11-18T08:21:20;74098.44;;;-145.25;100.00
54146;BME280;40052;49.422;7.738;2022-11-18T08:23:50;74104.47;;;-145.25;100.00
54146;BME280;40052;49.422;7.738;2022-11-18T08:26:18;74092.44;;;-145.25;100.00
54146;BME280;40052;49.422;7.738;2022-11-18T08:28:44;74096.44;;;-145.25;100.00
54146;BME280;40052;49.422;7.738;2022-11-18T08:33:36;74090.44;;;-145.25;100.00
54146;BME280;40052;49.422;7.738;2022-11-18T08:36:16;74084.44;;;-145.25;100.00
54146;BME280;40052;49.422;7.738;2022-11-18T08:38:41;74068.41;;;-145.25;100.00
54146;BME280;40052;49.422;7.738;2022-11-18T08:41:11;74064.38;;;-145.25;100.00
54146;BME280;40052;49.422;7.738;2022-11-18T08:43:36;74052.38;;;-145.25;99.63
54146;BME280;40052;49.422;7.738;2022-11-18T08:46:02;74048.38;;;-145.25;99.73
54146;BME280;40052;49.422;7.738;2022-11-18T08:48:30;74046.34;;;-145.25;100.00
54146;BME280;40052;49.422;7.738;2022-11-18T08:50:58;74048.38;;;-145.25;100.00
54146;BME280;40052;49.422;7.738;2022-11-18T08:53:24;74054.38;;;-145.25;100.00
54146;BME280;40052;49.422;7.738;2022-11-18T08:56:01;74048.38;;;-145.25;100.00
54146;BME280;40052;49.422;7.738;2022-11-18T08:58:29;74064.38;;;-145.25;100.00
54146;BME280;40052;49.422;7.738;2022-11-18T09:00:55;74050.38;;;-145.25;100.00
54146;BME280;40052;49.422;7.738;2022-11-18T09:03:25;74044.34;;;-145.25;100.00
54146;BME280;40052;49.422;7.738;2022-11-18T09:05:50;74036.34;;;-145.25;100.00
54146;BME280;40052;49.422;7.738;2022-11-18T09:08:16;74040.34;;;-145.25;99.91
54146;BME280;40052;49.422;7.738;2022-11-18T09:10:41;74014.31;;;-145.25;100.00
54146;BME280;40052;49.422;7.738;2022-11-18T09:13:07;74000.28;;;-145.25;100.00
54146;BME280;40052;49.422;7.738;2022-11-18T09:15:34;73988.25;;;-145.25;100.00
54146;BME280;40052;49.422;7.738;2022-11-18T09:18:02;73956.19;;;-145.25;99.66
54146;BME280;40052;49.422;7.738;2022-11-18T09:20:27;73986.25;;;-145.25;98.02
54146;BME280;40052;49.422;7.738;2022-11-18T09:22:53;73938.16;;;-145.25;97.13
54146;BME280;40052;49.422;7.738;2022-11-18T09:25:21;73950.19;;;-145.25;96.41
54146;BME280;40052;49.422;7.738;2022-11-18T09:27:48;73924.13;;;-145.25;95.63
54146;BME280;40052;49.422;7.738;2022-11-18T09:30:13;73880.06;;;-145.25;92.74
54146;BME280;40052;49.422;7.738;2022-11-18T09:32:41;73842.00;;;-145.25;90.68
54146;BME280;40052;49.422;7.738;2022-11-18T09:35:07;73813.94;;;-145.25;86.18
54146;BME280;40052;49.422;7.738;2022-11-18T09:37:34;73848.00;;;-145.25;85.53
54146;BME280;40052;49.422;7.738;2022-11-18T09:40:02;73785.88;;;-145.25;83.68
54146;BME280;40052;49.422;7.738;2022-11-18T09:47:33;73755.84;;;-145.25;83.29
54146;BME280;40052;49.422;7.738;2022-11-18T09:50:12;73685.72;;;-145.25;81.58
54146;BME280;40052;49.422;7.738;2022-11-18T09:55:12;73691.72;;;-145.25;80.25
54146;BME280;40052;49.422;7.738;2022-11-18T09:57:49;73735.81;;;-145.25;80.06
54146;BME280;40052;49.422;7.738;2022-11-18T10:00:26;73793.91;;;-145.25;82.54
54146;BME280;40052;49.422;7.738;2022-11-18T10:02:59;73827.97;;;-145.25;82.80
54146;BME280;40052;49.422;7.738;2022-11-18T10:05:46;73856.00;;;-145.25;83.15
54146;BME280;40052;49.422;7.738;2022-11-18T10:08:24;73860.03;;;-145.25;83.40
54146;BME280;40052;49.422;7.738;2022-11-18T10:13:54;73876.06;;;-145.25;85.00
54146;BME280;40052;49.422;7.738;2022-11-18T10:19:18;73858.03;;;-145.25;84.93
54146;BME280;40052;49.422;7.738;2022-11-18T10:22:28;73868.03;;;-145.25;84.33
54146;BME280;40052;49.422;7.738;2022-11-18T10:24:57;73876.06;;;-145.25;83.59
54146;BME280;40052;49.422;7.738;2022-11-18T10:27:33;73844.00;;;-145.25;82.81
54146;BME280;40052;49.422;7.738;2022-11-18T10:30:00;73862.03;;;-145.25;80.80
54146;BME280;40052;49.422;7.738;2022-11-18T10:32:25;73876.06;;;-145.25;82.93
54146;BME280;40052;49.422;7.738;2022-11-18T10:34:55;73904.09;;;-145.25;83.35
54146;BME280;40052;49.422;7.738;2022-11-18T10:37:29;73930.16;;;-145.25;84.80
54146;BME280;40052;49.422;7.738;2022-11-18T10:39:58;73930.16;;;-145.25;86.03
54146;BME280;40052;49.422;7.738;2022-11-18T10:42:44;73930.16;;;-145.25;86.13
54146;BME280;40052;49.422;7.738;2022-11-18T10:48:16;73972.22;;;-145.25;82.99
54146;BME280;40052;49.422;7.738;2022-11-18T10:53:28;73992.25;;;-145.25;86.38
54146;BME280;40052;49.422;7.738;2022-11-18T10:55:59;73996.25;;;-145.25;86.98
54146;BME280;40052;49.422;7.738;2022-11-18T10:58:25;73996.25;;;-145.25;86.13
54146;BME280;40052;49.422;7.738;2022-11-18T11:03:42;73982.25;;;-145.25;84.33
54146;BME280;40052;49.422;7.738;2022-11-18T11:11:30;74036.34;;;-145.25;85.68
54146;BME280;40052;49.422;7.738;2022-11-18T11:14:18;74024.31;;;-145.25;87.10
54146;BME280;40052;49.422;7.738;2022-11-18T11:17:11;74036.34;;;-145.25;86.73
54146;BME280;40052;49.422;7.738;2022-11-18T11:22:13;74052.38;;;-145.25;87.83
54146;BME280;40052;49.422;7.738;2022-11-18T11:24:39;74064.38;;;-145.25;88.20
54146;BME280;40052;49.422;7.738;2022-11-18T11:30:02;74054.38;;;-145.25;86.91
54146;BME280;40052;49.422;7.738;2022-11-18T11:38:54;74022.31;;;-145.25;85.40
54146;BME280;40052;49.422;7.738;2022-11-18T11:41:29;74008.28;;;-145.25;85.79
54146;BME280;40052;49.422;7.738;2022-11-18T11:50:00;74034.34;;;-145.25;84.70
54146;BME280;40052;49.422;7.738;2022-11-18T11:52:49;74024.31;;;-145.25;84.47
54146;BME280;40052;49.422;7.738;2022-11-18T12:00:50;74010.28;;;-145.25;83.74
54146;BME280;40052;49.422;7.738;2022-11-18T12:03:43;74012.28;;;-145.25;83.63
54146;BME280;40052;49.422;7.738;2022-11-18T12:06:10;74014.31;;;-145.25;83.40
54146;BME280;40052;49.422;7.738;2022-11-18T12:08:36;74024.31;;;-145.25;83.29
54146;BME280;40052;49.422;7.738;2022-11-18T12:13:51;74014.31;;;-145.25;84.77
54146;BME280;40052;49.422;7.738;2022-11-18T12:18:58;74018.31;;;-145.25;84.77
54146;BME280;40052;49.422;7.738;2022-11-18T12:26:45;73914.13;;;-145.25;81.32
54146;BME280;40052;49.422;7.738;2022-11-18T12:31:43;73982.25;;;-145.25;79.02
54146;BME280;40052;49.422;7.738;2022-11-18T12:34:26;73992.25;;;-145.25;79.67
54146;BME280;40052;49.422;7.738;2022-11-18T12:36:53;74020.31;;;-145.25;80.56
54146;BME280;40052;49.422;7.738;2022-11-18T12:44:38;73779.88;;;-145.25;74.08
54146;BME280;40052;49.422;7.738;2022-11-18T12:47:11;73739.81;;;-145.25;71.53
54146;BME280;40052;49.422;7.738;2022-11-18T12:54:53;73856.00;;;-145.25;72.69
54146;BME280;40052;49.422;7.738;2022-11-18T12:57:29;73884.06;;;-145.25;72.79
54146;BME280;40052;49.422;7.738;2022-11-18T12:59:56;73910.13;;;-145.25;73.80
54146;BME280;40052;49.422;7.738;2022-11-18T13:02:22;73896.09;;;-145.25;74.75
54146;BME280;40052;49.422;7.738;2022-11-18T13:05:09;73916.13;;;-145.25;74.38
54146;BME280;40052;49.422;7.738;2022-11-18T13:07:44;73908.09;;;-145.25;75.32
54146;BME280;40052;49.422;7.738;2022-11-18T13:10:31;73932.16;;;-145.25;74.68
54146;BME280;40052;49.422;7.738;2022-11-18T13:12:57;73962.22;;;-145.25;74.23
54146;BME280;40052;49.422;7.738;2022-11-18T13:15:23;73968.22;;;-145.25;74.89
54146;BME280;40052;49.422;7.738;2022-11-18T13:18:14;73932.16;;;-145.25;75.22
54146;BME280;40052;49.422;7.738;2022-11-18T13:20:41;73924.13;;;-145.25;74.44
54146;BME280;40052;49.422;7.738;2022-11-18T13:26:04;73934.16;;;-145.25;74.66
54146;BME280;40052;49.422;7.738;2022-11-18T13:28:37;73940.16;;;-145.25;75.11
54146;BME280;40052;49.422;7.738;2022-11-18T13:33:51;73942.16;;;-145.25;76.27
54146;BME280;40052;49.422;7.738;2022-11-18T13:36:22;73958.19;;;-145.25;73.86
54146;BME280;40052;49.422;7.738;2022-11-18T13:39:03;73962.22;;;-145.25;74.67
54146;BME280;40052;49.422;7.738;2022-11-18T13:41:31;73912.13;;;-145.25;76.21
54146;BME280;40052;49.422;7.738;2022-11-18T13:44:24;73956.19;;;-145.25;73.90
54146;BME280;40052;49.422;7.738;2022-11-18T13:46:59;73940.16;;;-145.25;75.55
54146;BME280;40052;49.422;7.738;2022-11-18T13:49:41;73960.19;;;-145.25;75.49
54146;BME280;40052;49.422;7.738;2022-11-18T13:52:12;73946.19;;;-145.25;76.65
54146;BME280;40052;49.422;7.738;2022-11-18T13:54:42;73946.19;;;-145.25;76.74
54146;BME280;40052;49.422;7.738;2022-11-18T13:57:18;73948.19;;;-145.25;76.01
54146;BME280;40052;49.422;7.738;2022-11-18T13:59:45;73956.19;;;-145.25;76.61
54146;BME280;40052;49.422;7.738;2022-11-18T14:02:12;73970.22;;;-145.25;76.49
54146;BME280;40052;49.422;7.738;2022-11-18T14:04:48;73980.25;;;-145.25;75.82
54146;BME280;40052;49.422;7.738;2022-11-18T14:07:24;73980.25;;;-145.25;76.92
54146;BME280;40052;49.422;7.738;2022-11-18T14:09:55;74002.28;;;-145.25;77.79
54146;BME280;40052;49.422;7.738;2022-11-18T14:12:26;73988.25;;;-145.25;78.37
54146;BME280;40052;49.422;7.738;2022-11-18T14:15:19;74008.28;;;-145.25;77.16
54146;BME280;40052;49.422;7.738;2022-11-18T14:17:56;74014.31;;;-145.25;78.14
54146;BME280;40052;49.422;7.738;2022-11-18T14:20:22;74028.31;;;-145.25;78.55
54146;BME280;40052;49.422;7.738;2022-11-18T14:22:58;74040.34;;;-145.25;79.20
54146;BME280;40052;49.422;7.738;2022-11-18T14:27:54;74052.38;;;-145.25;81.64
54146;BME280;40052;49.422;7.738;2022-11-18T14:30:35;74048.38;;;-145.25;82.67
54146;BME280;40052;49.422;7.738;2022-11-18T14:35:29;74068.41;;;-145.25;83.92
54146;BME280;40052;49.422;7.738;2022-11-18T14:37:55;74064.38;;;-145.25;84.49
54146;BME280;40052;49.422;7.738;2022-11-18T14:40:20;74098.44;;;-145.25;84.13